Latest Weather Observations for Port Augusta

IDS60801

Issued at 10:51 am CDT Monday 18 October 2021 (issued every 10 minutes, with the page automatically refreshed every 10 minutes)

About weather observations | Map of weather stations | Latest weather observations for SA | Other Formats
Station Details ID: 018201 Name: PORT AUGUSTA AERO Lat: -32.51 Lon: 137.72 Height: 13.97 m
Data from the previous 72 hours. | See also: Recent months at Port Augusta
Date/Time
CDT
Temp
°C
App
Temp
°C
Dew
Point
°C
Rel
Hum
%
Delta-T
°C
Wind Press
QNH
hPa
Press
MSL
hPa
Rain since
9am
mm
Dir  Spd
km/h
Gust
km/h
Spd
kts
Gust
kts
18/10:30am 26.0 22.3 8.0 32 9.6 WNW 17 22 9 12 1014.4 1014.3 0.0
18/10:00am 25.6 22.8 8.6 34 9.2 WNW 13 24 7 13 1014.2 1014.1 0.0
18/09:30am 24.1 22.4 8.5 37 8.3 WNW 7 15 4 8 1014.1 1014.0 0.0
18/09:00am 23.8 22.2 8.6 38 8.1 WNW 7 13 4 7 1013.9 1013.8 0.0
18/08:30am 22.5 19.9 7.9 39 7.6 NNW 11 15 6 8 1013.6 1013.5 0.0
18/08:00am 21.0 17.7 8.0 43 6.8 NNW 15 19 8 10 1013.1 1013.0 0.0
18/07:30am 18.6 16.8 9.4 55 4.8 NNW 9 13 5 7 1012.7 1012.6 0.0
18/07:00am 15.3 13.5 8.1 62 3.6 SW 7 9 4 5 1012.3 1012.2 0.0
18/06:30am 15.3 13.1 7.8 61 3.7 WSW 9 9 5 5 1011.8 1011.7 0.0
18/06:00am 16.4 14.7 8.4 59 4.1 WSW 7 7 4 4 1011.3 1011.2 0.0
18/05:30am 17.0 15.4 7.9 55 4.6 W 6 7 3 4 1011.1 1011.0 0.0
18/05:00am 17.5 15.7 8.1 54 4.8 W 7 9 4 5 1010.7 1010.6 0.0
18/04:30am 18.9 16.0 8.3 50 5.5 NNW 13 15 7 8 1010.3 1010.2 0.0
18/04:00am 20.3 16.4 8.6 47 6.1 N 19 24 10 13 1010.2 1010.1 0.0
18/03:30am 20.7 16.7 8.4 45 6.4 NNW 19 24 10 13 1010.2 1010.1 0.0
18/03:00am 19.5 17.1 8.5 49 5.7 NNW 11 13 6 7 1010.3 1010.2 0.0
18/02:30am 19.1 15.8 8.1 49 5.7 N 15 19 8 10 1010.2 1010.1 0.0
18/02:00am 19.0 16.1 8.1 49 5.6 N 13 17 7 9 1010.2 1010.1 0.0
18/01:30am 20.2 15.9 7.9 45 6.4 NNE 20 24 11 13 1010.4 1010.3 0.0
18/01:00am 20.2 16.9 7.9 45 6.4 NNE 15 19 8 10 1010.5 1010.4 0.0
18/12:30am 21.6 17.9 7.8 41 7.2 NNE 17 20 9 11 1010.7 1010.6 0.0
18/12:00am 20.6 17.3 6.5 40 7.1 N 13 17 7 9 1010.7 1010.6 0.0
 
Date/Time
CDT
Temp
°C
App
Temp
°C
Dew
Point
°C
Rel
Hum
%
Delta-T
°C
Wind Press
QNH
hPa
Press
MSL
hPa
Rain since
9am
mm
Dir  Spd
km/h
Gust
km/h
Spd
kts
Gust
kts
17/11:30pm 21.2 17.7 5.6 36 7.8 N 13 15 7 8 1010.7 1010.6 0.0
17/11:00pm 23.2 18.4 5.6 32 8.9 NNW 20 26 11 14 1010.7 1010.6 0.0
17/10:30pm 23.5 17.4 2.9 26 9.9 NNE 24 35 13 19 1010.5 1010.4 0.0
17/10:00pm 21.2 17.1 4.3 33 8.2 N 15 17 8 9 1010.4 1010.3 0.0
17/09:30pm 22.0 17.7 3.2 29 9.0 NNE 15 19 8 10 1010.3 1010.2 0.0
17/09:00pm 21.9 18.1 4.0 31 8.7 N 13 15 7 8 1009.9 1009.8 0.0
17/08:30pm 23.4 19.5 3.4 27 9.7 N 13 15 7 8 1009.7 1009.6 0.0
17/08:00pm 25.5 21.0 2.2 22 11.2 N 15 17 8 9 1009.4 1009.3 0.0
17/07:30pm 26.7 21.4 1.9 20 12.0 NNW 19 24 10 13 1009.1 1009.0 0.0
17/07:00pm 27.2 22.2 1.6 19 12.3 NNW 17 22 9 12 1008.8 1008.7 0.0
17/06:30pm 27.9 23.0 2.2 19 12.6 NNW 17 24 9 13 1008.6 1008.5 0.0
17/06:00pm 28.8 23.8 1.3 17 13.3 NNW 17 24 9 13 1008.3 1008.2 0.0
17/05:30pm 28.6 23.2 1.2 17 13.3 N 19 26 10 14 1008.3 1008.2 0.0
17/05:00pm 28.8 23.7 0.5 16 13.5 NNW 17 28 9 15 1008.4 1008.3 0.0
17/04:30pm 29.1 24.3 -0.1 15 13.9 WNW 15 26 8 14 1008.6 1008.5 0.0
17/04:00pm 29.8 24.8 1.3 16 13.9 NW 17 32 9 17 1008.8 1008.7 0.0
17/03:30pm 28.7 23.7 1.3 17 13.3 WNW 17 30 9 16 1009.3 1009.2 0.0
17/03:00pm 28.1 23.1 1.6 18 12.9 N 17 26 9 14 1009.7 1009.6 0.0
17/02:47pm 28.4 23.1 1.8 18 13.0 N 19 41 10 22 1009.8 1009.7 0.0
17/02:30pm 28.3 25.1 3.2 20 12.5 NNW 9 22 5 12 1010.2 1010.1 0.0
17/02:00pm 28.0 22.9 3.0 20 12.4 NW 19 33 10 18 1010.8 1010.7 0.0
17/01:30pm 26.8 21.6 2.7 21 11.8 NNW 19 35 10 19 1011.4 1011.3 0.0
17/01:00pm 26.7 20.0 3.9 23 11.4 NNW 28 46 15 25 1011.9 1011.8 0.0
17/12:52pm 26.9 20.4 4.6 24 11.3 N 28 46 15 25 1011.9 1011.8 0.0
17/12:30pm 26.6 20.4 4.4 24 11.2 N 26 39 14 21 1012.3 1012.2 0.0
17/12:00pm 25.6 19.7 5.8 28 10.2 N 26 39 14 21 1012.8 1012.7 0.0
17/11:30am 24.0 17.5 4.9 29 9.6 NNW 28 39 15 21 1013.4 1013.3 0.0
17/11:00am 23.5 16.9 5.9 32 8.9 NNW 30 39 16 21 1013.7 1013.6 0.0
17/10:30am 22.3 16.8 6.1 35 8.2 N 24 32 13 17 1014.1 1014.0 0.0
17/10:00am 20.8 17.9 8.1 44 6.6 NNW 13 20 7 11 1014.2 1014.1 0.0
17/09:30am 19.1 16.8 7.5 47 5.9 N 9 17 5 9 1014.3 1014.2 0.0
17/09:00am 16.8 15.8 9.0 60 4.0 NE 4 7 2 4 1014.2 1014.1 0.0
17/08:30am 15.8 14.7 9.9 68 3.1 NE 6 7 3 4 1014.1 1014.0 0.0
17/08:00am 13.3 13.2 9.5 78 1.9 CALM 0 0 0 0 1014.1 1014.0 0.0
17/07:30am 9.0 7.0 7.0 87 0.9 N 7 9 4 5 1014.0 1013.9 0.0
17/07:00am 8.5 7.7 6.3 86 1.0 CALM 0 0 0 0 1013.6 1013.5 0.0
17/06:30am 8.9 7.6 6.0 82 1.3 WNW 2 7 1 4 1013.3 1013.2 0.0
17/06:00am 9.8 7.9 6.5 80 1.5 WSW 6 7 3 4 1013.1 1013.0 0.0
17/05:30am 9.4 7.3 6.5 82 1.3 SW 7 7 4 4 1012.8 1012.7 0.0
17/05:00am 10.0 8.1 6.5 79 1.6 SSE 6 7 3 4 1012.6 1012.5 0.0
17/04:30am 12.0 9.8 7.9 76 2.0 SE 9 11 5 6 1012.5 1012.4 0.0
17/04:00am 12.3 10.0 7.4 72 2.4 SE 9 13 5 7 1012.9 1012.8 0.0
17/03:30am 11.8 9.3 6.5 70 2.5 SE 9 11 5 6 1013.3 1013.2 0.0
17/03:00am 12.8 10.0 7.0 68 2.8 SE 11 15 6 8 1013.8 1013.7 0.0
17/02:30am 12.8 10.8 7.3 69 2.7 SE 7 11 4 6 1014.0 1013.9 0.0
17/02:00am 12.6 11.2 7.3 70 2.6 S 4 6 2 3 1014.2 1014.1 0.0
17/01:30am 13.4 11.1 7.4 67 2.9 SSE 9 13 5 7 1014.4 1014.3 0.0
17/01:00am 13.7 10.8 8.3 70 2.7 S 13 19 7 10 1014.7 1014.6 0.0
17/12:30am 14.3 10.6 9.3 72 2.6 SE 19 26 10 14 1015.0 1014.9 0.0
17/12:00am 14.6 9.8 8.8 68 2.9 SE 24 33 13 18 1015.1 1015.0 0.0
 
Date/Time
CDT
Temp
°C
App
Temp
°C
Dew
Point
°C
Rel
Hum
%
Delta-T
°C
Wind Press
QNH
hPa
Press
MSL
hPa
Rain since
9am
mm
Dir  Spd
km/h
Gust
km/h
Spd
kts
Gust
kts
16/11:30pm 14.6 9.6 7.9 64 3.3 SE 24 32 13 17 1015.4 1015.3 0.0
16/11:00pm 14.9 9.3 7.2 60 3.8 SE 26 32 14 17 1015.5 1015.4 0.0
16/10:30pm 14.7 9.0 6.5 58 4.0 SE 26 35 14 19 1015.5 1015.4 0.0
16/10:00pm 14.7 10.2 6.0 56 4.2 SE 19 30 10 16 1015.7 1015.6 0.0
16/09:30pm 14.8 10.7 6.4 57 4.1 SE 17 24 9 13 1015.5 1015.4 0.0
16/09:00pm 15.1 10.3 7.2 59 3.9 SE 22 35 12 19 1015.2 1015.1 0.0
16/08:30pm 16.1 11.2 7.1 55 4.5 SSE 22 28 12 15 1014.8 1014.7 0.0
16/08:00pm 17.0 11.6 6.2 49 5.3 SSE 24 32 13 17 1014.3 1014.2 0.0
16/07:30pm 17.6 11.9 6.5 48 5.5 SSE 26 33 14 18 1013.9 1013.8 0.0
16/07:00pm 18.5 12.8 6.7 46 5.9 SSE 26 32 14 17 1013.8 1013.7 0.0
16/06:30pm 19.1 13.8 6.6 44 6.3 SE 24 30 13 16 1013.5 1013.4 0.0
16/06:00pm 20.0 15.1 6.7 42 6.7 SE 22 28 12 15 1013.4 1013.3 0.0
16/05:30pm 20.2 15.9 7.2 43 6.6 SE 19 26 10 14 1013.4 1013.3 0.0
16/05:00pm 20.1 16.4 6.5 41 6.8 SE 15 20 8 11 1013.5 1013.4 0.0
16/04:30pm 19.9 16.4 7.0 43 6.5 SE 15 24 8 13 1013.8 1013.7 0.0
16/04:00pm 19.0 14.7 7.1 46 6.0 SE 19 28 10 15 1014.3 1014.2 0.0
16/03:30pm 19.8 15.7 7.9 46 6.1 SE 19 28 10 15 1014.6 1014.5 0.0
16/03:00pm 19.7 15.0 7.8 46 6.1 SE 22 30 12 16 1015.1 1015.0 0.0
16/02:30pm 18.2 13.4 7.3 49 5.5 SE 22 30 12 16 1015.7 1015.6 0.0
16/02:00pm 18.6 14.4 7.4 48 5.7 ESE 19 30 10 16 1016.2 1016.1 0.0
16/01:30pm 17.5 12.7 7.5 52 5.0 ESE 22 33 12 18 1016.5 1016.4 0.0
16/01:00pm 17.6 13.6 8.2 54 4.8 ESE 19 26 10 14 1017.0 1016.9 0.0
16/12:30pm 19.1 15.6 8.7 51 5.4 ESE 17 26 9 14 1017.3 1017.2 0.0
16/12:00pm 16.8 12.6 7.4 54 4.7 SE 19 28 10 15 1017.6 1017.5 0.0
16/11:30am 17.1 13.1 8.3 56 4.5 ESE 19 28 10 15 1018.0 1017.9 0.0
16/11:00am 16.5 13.1 9.0 61 3.9 SE 17 22 9 12 1018.2 1018.1 0.0
16/10:30am 15.1 12.1 9.2 68 3.0 SE 15 24 8 13 1018.4 1018.3 0.0
16/10:00am 15.2 11.9 9.6 69 2.9 SE 17 22 9 12 1018.4 1018.3 0.0
16/09:30am 14.2 10.5 9.4 73 2.5 SE 19 24 10 13 1018.4 1018.3 0.0
16/09:00am 15.3 11.2 7.8 61 3.7 S 19 24 10 13 1018.3 1018.2 0.0
16/08:30am 14.8 12.0 8.5 66 3.2 SSE 13 20 7 11 1018.1 1018.0 0.0
16/08:00am 14.0 10.9 9.0 72 2.5 S 15 20 8 11 1018.0 1017.9 0.0
16/07:30am 13.4 11.5 8.9 74 2.3 SW 9 13 5 7 1017.7 1017.6 0.0
16/07:00am 13.0 12.7 10.0 82 1.5 SE 2 7 1 4 1017.5 1017.4 0.0
16/06:30am 13.0 10.9 9.6 80 1.7 SE 11 17 6 9 1017.1 1017.0 0.0
16/06:00am 13.4 9.9 8.7 73 2.4 SSW 17 20 9 11 1016.7 1016.6 0.0
16/05:30am 13.4 9.5 8.5 72 2.4 SSW 19 24 10 13 1016.5 1016.4 0.0
16/05:00am 12.6 10.3 8.9 78 1.9 SW 11 15 6 8 1016.4 1016.3 0.0
16/04:30am 13.0 9.4 8.5 74 2.2 SW 17 20 9 11 1016.4 1016.3 0.0
16/04:00am 13.2 9.1 8.5 73 2.3 SW 20 26 11 14 1016.4 1016.3 0.0
16/03:30am 12.6 9.5 8.7 77 1.9 SW 15 20 8 11 1016.6 1016.5 0.0
16/03:00am 11.9 8.4 8.6 80 1.6 SW 17 19 9 10 1016.7 1016.6 0.0
16/02:30am 12.2 8.2 8.3 77 1.9 SSW 19 22 10 12 1016.8 1016.7 0.0
16/02:00am 13.3 8.8 8.6 73 2.4 SSW 22 28 12 15 1016.8 1016.7 0.0
16/01:30am 13.5 9.0 8.6 72 2.5 SSW 22 28 12 15 1017.0 1016.9 0.0
16/01:00am 13.6 8.8 8.7 72 2.5 SSW 24 28 13 15 1017.1 1017.0 0.0
16/12:30am 13.4 9.6 9.1 75 2.2 SSW 19 24 10 13 1017.3 1017.2 0.0
16/12:00am 13.3 9.3 9.2 76 2.1 SSW 20 26 11 14 1017.2 1017.1 0.0
 
Date/Time
CDT
Temp
°C
App
Temp
°C
Dew
Point
°C
Rel
Hum
%
Delta-T
°C
Wind Press
QNH
hPa
Press
MSL
hPa
Rain since
9am
mm
Dir  Spd
km/h
Gust
km/h
Spd
kts
Gust
kts
15/11:30pm 13.8 9.9 9.3 74 2.3 S 20 28 11 15 1017.0 1016.9 0.0
15/11:00pm 13.6 9.4 8.4 71 2.6 S 20 28 11 15 1017.0 1016.9 0.0
15/10:30pm 13.9 9.3 8.1 68 2.9 SSW 22 30 12 16 1016.9 1016.8 0.0
15/10:00pm 14.1 9.1 7.9 66 3.1 SSW 24 30 13 16 1016.5 1016.4 0.0
15/09:30pm 14.7 9.3 8.0 64 3.3 SSW 26 33 14 18 1016.3 1016.2 0.0
15/09:00pm 14.9 8.8 8.2 64 3.4 SSW 30 37 16 20 1015.9 1015.8 0.0
15/08:30pm 15.1 8.9 7.9 62 3.6 S 30 37 16 20 1015.7 1015.6 0.0
15/08:00pm 15.7 9.1 6.2 53 4.6 S 30 39 16 21 1015.3 1015.2 0.0
15/07:30pm 16.7 9.6 5.3 47 5.5 S 32 41 17 22 1014.8 1014.7 0.0
15/07:00pm 17.5 10.3 6.1 47 5.6 S 33 44 18 24 1014.2 1014.1 0.0
15/06:30pm 18.1 11.2 6.6 47 5.7 S 32 41 17 22 1013.9 1013.8 0.0
15/06:00pm 18.7 11.8 7.2 47 5.8 S 33 44 18 24 1013.8 1013.7 0.0
15/05:30pm 19.5 11.5 7.3 45 6.2 S 39 48 21 26 1013.4 1013.3 0.0
15/05:00pm 20.1 13.0 6.5 41 6.8 S 33 50 18 27 1013.1 1013.0 0.0
15/04:30pm 20.1 12.9 5.7 39 7.1 S 33 50 18 27 1012.9 1012.8 0.0
15/04:00pm 20.6 13.4 5.8 38 7.4 S 33 54 18 29 1012.8 1012.7 0.0
15/03:47pm 20.8 13.5 5.6 37 7.5 S 33 52 18 28 1012.9 1012.8 0.0
15/03:30pm 20.3 13.1 4.8 36 7.5 S 32 41 17 22 1013.1 1013.0 0.0
15/03:00pm 21.3 14.7 6.0 37 7.7 S 30 43 16 23 1013.2 1013.1 0.0
15/02:30pm 19.3 11.7 5.7 41 6.7 S 35 54 19 29 1013.4 1013.3 0.0
15/02:00pm 18.3 9.9 5.8 44 6.1 S 39 57 21 31 1013.6 1013.5 0.0
15/01:45pm 18.6 9.9 5.8 43 6.3 SSW 41 61 22 33 1013.4 1013.3 0.0
15/01:30pm 19.0 10.6 7.4 47 5.9 SSW 41 57 22 31 1013.5 1013.4 0.0
15/01:24pm 18.9 10.9 7.4 47 5.8 SSW 39 57 21 31 1013.3 1013.2 0.0
15/01:00pm 18.3 8.8 6.8 47 5.7 S 46 59 25 32 1013.2 1013.1 0.0
15/12:35pm 18.3 9.7 8.3 52 5.1 S 43 61 23 33 1013.1 1013.0 0.0
15/12:30pm 17.8 9.5 7.8 52 5.1 S 41 57 22 31 1013.2 1013.1 0.0
15/12:00pm 16.8 9.2 7.7 55 4.6 SSW 37 56 20 30 1013.3 1013.2 0.0
15/11:31am 15.8 6.8 8.8 63 3.6 SSW 46 65 25 35 1013.1 1013.0 0.0
15/11:30am 16.3 7.6 8.3 59 4.1 SSW 44 61 24 33 1013.1 1013.0 0.0
15/11:18am 17.0 8.3 8.4 57 4.4 SSW 44 65 24 35 1012.9 1012.8 0.0
15/11:00am 17.1 8.2 7.7 54 4.7 SSW 44 59 24 32 1012.8 1012.7 0.0

Other formats

Comma delimited format used in spreadsheet applications
http://www.bom.gov.au/fwo/IDS60801/IDS60801.95666.axf

JavaScript Object Notation format (JSON) in row-major order
http://www.bom.gov.au/fwo/IDS60801/IDS60801.95666.json

Data quality

Most of these data are generated automatically and are frequently updated. Quality checks on data are not normally performed. It is possible for incorrect values to appear. Refer to information at About Latest Weather Observations and please check the disclaimer before using these data.